»·PEaware :: N55NT KMRY-KSAC

N55NT :: KMRY-KSAC

FLIGHT INFORMATION

Flight Status: Arrived
Operator: Privately registered:
United States
More flights under this callsign
Pilot: Craig H. (6968)
Aircraft: CESSNA T210 TURBO CENTURION
(T210)
More flights by this aircraft type
Origin: KMRY Monterey Peninsula
United States
Destination: KSAC Sacramento Executive
United States
More flights between these airports :: More routes between these airports
Route: +MRY5 SHOEY SNS V111 MOD SAC
File this flight plan on PilotEdge
Remarks:
Altitude:
(Current/Filed)
8,000ft
Speed:
(Current/Filed)
145kts
Departed: 21-Mar-20 12:22 PM
Arrived: 21-Mar-20 01:17 PM
Distance/Time
Traveled:
117nm/0:55
Distance/Time
To Go:
Arrived

Flight Plot

Page will automatically refresh every two minutes.

Flight plan parsing failed; only flown route is shown


Map Options




Map Legend


Flown Route
Filed Route
Departure Airport
Arrival Airport
Navaid (VOR, NDB)
Fix

Horizontal Profiles

Position Reports

Time Latitude Longitude Heading Altitude Ground
Speed
21-Mar-20 12:01 36.589485 -121.858517 165 157ft 0kts
21-Mar-20 12:02 36.589485 -121.858517 165 157ft 0kts
21-Mar-20 12:03 36.589485 -121.858517 165 157ft 0kts
21-Mar-20 12:04 36.589485 -121.858517 165 157ft 0kts
21-Mar-20 12:05 36.589485 -121.858517 165 157ft 0kts
21-Mar-20 12:06 36.589485 -121.858517 165 157ft 0kts
21-Mar-20 12:07 36.589485 -121.858517 165 157ft 0kts
21-Mar-20 12:08 36.589485 -121.858517 165 157ft 0kts
21-Mar-20 12:09 36.589485 -121.858517 165 157ft 0kts
21-Mar-20 12:10 36.589485 -121.858517 165 157ft 0kts
21-Mar-20 12:11 36.589485 -121.858517 165 157ft 0kts
21-Mar-20 12:12 36.589485 -121.858517 165 157ft 0kts
21-Mar-20 12:13 36.589485 -121.858517 165 157ft 0kts
21-Mar-20 12:14 36.589485 -121.858517 165 157ft 0kts
21-Mar-20 12:15 36.589485 -121.858517 165 157ft 0kts
21-Mar-20 12:16 36.589003 -121.857999 114 159ft 2kts
21-Mar-20 12:17 36.589742 -121.855719 313 158ft 8kts
21-Mar-20 12:18 36.589956 -121.856042 328 156ft 0kts
21-Mar-20 12:19 36.589956 -121.856042 328 156ft 0kts
21-Mar-20 12:20 36.590107 -121.856085 10 155ft 4kts
21-Mar-20 12:21 36.586457 -121.842517 110 489ft 81kts
21-Mar-20 12:22 36.599001 -121.826212 347 1662ft 110kts
21-Mar-20 12:23 36.628025 -121.837980 344 2604ft 113kts
21-Mar-20 12:24 36.645456 -121.818102 90 3407ft 110kts
21-Mar-20 12:25 36.647645 -121.779763 86 4311ft 111kts
21-Mar-20 12:26 36.651196 -121.741242 86 5208ft 112kts
21-Mar-20 12:27 36.654853 -121.702048 86 5975ft 124kts
21-Mar-20 12:28 36.659422 -121.651909 85 5975ft 158kts
21-Mar-20 12:29 36.671530 -121.598599 39 5976ft 173kts
21-Mar-20 12:30 36.714658 -121.569660 30 5976ft 176kts
21-Mar-20 12:31 36.757396 -121.541362 30 5980ft 169kts
21-Mar-20 12:32 36.798797 -121.513937 29 5989ft 168kts
21-Mar-20 12:33 36.840067 -121.486566 29 5993ft 168kts
21-Mar-20 12:34 36.881421 -121.459114 29 5996ft 168kts
21-Mar-20 12:35 36.922880 -121.431558 29 5998ft 168kts
21-Mar-20 12:36 36.964330 -121.403999 29 5998ft 168kts
21-Mar-20 12:37 37.005952 -121.376382 30 5978ft 168kts
21-Mar-20 12:38 37.047046 -121.348927 30 5963ft 166kts
21-Mar-20 12:39 37.087646 -121.321823 30 5956ft 164kts
21-Mar-20 12:40 37.127898 -121.294893 29 5955ft 162kts
21-Mar-20 12:41 37.167971 -121.268109 28 5948ft 162kts
21-Mar-20 12:42 37.207706 -121.241384 28 5960ft 162kts
21-Mar-20 12:43 37.247623 -121.214545 27 5972ft 162kts
21-Mar-20 12:44 37.287417 -121.187818 27 5981ft 162kts
21-Mar-20 12:45 37.327266 -121.160987 27 5980ft 163kts
21-Mar-20 12:46 37.367263 -121.134022 27 5980ft 163kts
21-Mar-20 12:47 37.407150 -121.107129 27 5980ft 163kts
21-Mar-20 12:48 37.447088 -121.080184 27 5980ft 163kts
21-Mar-20 12:49 37.486972 -121.053259 27 5980ft 163kts
21-Mar-20 12:50 37.526865 -121.026184 27 5980ft 163kts
21-Mar-20 12:51 37.566877 -120.999109 27 5980ft 163kts
21-Mar-20 12:52 37.606736 -120.972098 27 5980ft 163kts
21-Mar-20 12:53 37.648579 -120.973249 329 5982ft 164kts
21-Mar-20 12:54 37.688036 -121.001827 329 5980ft 163kts
21-Mar-20 12:55 37.727411 -121.030301 329 5980ft 163kts
21-Mar-20 12:56 37.766832 -121.058713 329 5980ft 162kts
21-Mar-20 12:57 37.805754 -121.086797 330 5979ft 160kts
21-Mar-20 12:58 37.844331 -121.114646 331 5979ft 159kts
21-Mar-20 12:59 37.882621 -121.142330 331 5979ft 158kts
21-Mar-20 13:00 37.920730 -121.169926 331 5979ft 157kts
21-Mar-20 13:01 37.958737 -121.197482 330 5979ft 157kts
21-Mar-20 13:03 37.996698 -121.225011 330 5979ft 157kts
21-Mar-20 13:04 38.034529 -121.252499 330 5972ft 158kts
21-Mar-20 13:05 38.075167 -121.281924 333 5982ft 171kts
21-Mar-20 13:06 38.116554 -121.312078 333 5978ft 171kts
21-Mar-20 13:07 38.158114 -121.342430 333 5976ft 172kts
21-Mar-20 13:08 38.199892 -121.372989 332 5975ft 173kts
21-Mar-20 13:09 38.245227 -121.397023 351 5509ft 187kts
21-Mar-20 13:10 38.297498 -121.409349 352 4573ft 192kts
21-Mar-20 13:11 38.350205 -121.420681 352 3577ft 191kts
21-Mar-20 13:12 38.399880 -121.430199 352 2557ft 173kts
21-Mar-20 13:13 38.444860 -121.437923 352 1970ft 141kts
21-Mar-20 13:14 38.481765 -121.449211 329 1132ft 121kts
21-Mar-20 13:15 38.501805 -121.472267 308 442ft 83kts
21-Mar-20 13:16 38.515416 -121.491101 313 20ft 41kts
21-Mar-20 13:17 38.515712 -121.493682 214 21ft 8kts
21-Mar-20 13:18 38.513574 -121.495522 257 20ft 6kts
21-Mar-20 13:18 38.513927 -121.496875 304 20ft 5kts
21-Mar-20 13:20 38.515143 -121.498649 245 20ft 2kts
21-Mar-20 13:21 38.515072 -121.498739 223 20ft 0kts

Navigation Log

Ident Type
Flight plan parsing failed, navigation log unavailable